Webcam Rollhalt 06

Webcam Rollhalt 24

 

Flugplatz - Wetter - Augsburg

[Quelle: ADDS]
METAR
EDMA 032150Z AUTO VRB01KT 9999 // FEW100/// BKN130/// 14/08 Q1002 =
EDMA 031700Z 0318/0403 27009KT CAVOK BECMG 0318/0320 14004KT
TAF
EDMA 031700Z 0318/0403 27009KT CAVOK BECMG 0318/0320 14004KT =
SR / SS: 03:19 / 19:12 UTC (Augsburg 2020-06-03)

Flugplatz - Wetter - Laupheim

[Quelle: ADDS]
METAR
ETHL 032120Z 26005KT 9999 BKN100 17/09 Q1003 BLU =
ETHL 031920Z 0320/0405 24005KT 9999 NSW FEW050 BKN090 TEMPO 0320/0402 22010G20KT 8000 SHRA FEW020 BKN045CB PROB30 0320/0402 VRB10G25KT 5000 +TSRA FEW015 BKN040CB TEMPO 0402/0405 21005G15KT 8000 -SHRA FEW020 BKN035TCU
TAF
ETHL 031920Z 0320/0405 24005KT 9999 NSW FEW050 BKN090 TEMPO 0320/0402 22010G20KT 8000 SHRA FEW020 BKN045CB PROB30 0320/0402 VRB10G25KT 5000 +TSRA FEW015 BKN040CB TEMPO 0402/0405 21005G15KT 8000 -SHRA FEW020 BKN035TCU =
SR / SS: 03:24 / 19:15 UTC (Laupheim 2020-06-03)

Flugplatz - Wetter - Memmingen

[Quelle: ADDS]
METAR
EDJA 032150Z AUTO 21008KT 9999 // FEW120/// BKN170/// 15/09 Q1003 =
EDJA 032000Z 0321/0406 21005KT CAVOK
TAF
EDJA 032000Z 0321/0406 21005KT CAVOK =
SR / SS: 03:24 / 19:11 UTC (Memmingen 2020-06-03)

Flugplatz - Wetter - Neuburg/Donau

[Quelle: ADDS]
METAR
ETSN 032120Z 23003KT 9999 SCT130 BKN240 13/08 Q1002 BLU+ =
ETSN 031930Z 0320/0405 16005KT 9999 NSW FEW070 BKN200 PROB30 0320/0405 18012KT 5000 SHRA BKN020TCU BY ETGL
TAF
ETSN 031930Z 0320/0405 16005KT 9999 NSW FEW070 BKN200 PROB30 0320/0405 18012KT 5000 SHRA BKN020TCU BY ETGL =
SR / SS: 03:16 / 19:10 UTC (Neuburg 2020-06-03)

Flugplatz - Wetter - Stuttgart

[Quelle: ADDS]
METAR
EDDS 032150Z VRB02KT 9999 -SHRA FEW040CB 18/11 Q1002 =
EDDS 031700Z 0318/0418 26005KT CAVOK BECMG 0318/0321 VRB03KT PROB40 TEMPO 0321/0409 RA PROB30 TEMPO 0321/0409 TSRA BKN060CB BECMG 0406/0409 20006KT PROB30 TEMPO 0409/0418 24015G25KT 4000 TSRA BKN020CB
TAF
EDDS 031700Z 0318/0418 26005KT CAVOK BECMG 0318/0321 VRB03KT PROB40 TEMPO 0321/0409 RA PROB30 TEMPO 0321/0409 TSRA BKN060CB BECMG 0406/0409 20006KT PROB30 TEMPO 0409/0418 24015G25KT 4000 TSRA BKN020CB =
SR / SS: 03:24 / 19:18 UTC (Stuttgart 2020-06-03)

Flugplatz - Wetter - Niederstetten

[Quelle: ADDS]
METAR
ETHN 032120Z 12005KT 9999 FEW070 BKN230 14/10 Q1002 BLU+BLU+ =
ETHN 031904Z 0320/0405 20008KT 9999 NSW FEW060 SCT230
TAF
ETHN 031904Z 0320/0405 20008KT 9999 NSW FEW060 SCT230 =
SR / SS: 03:19 / 19:20 UTC (Niederstetten 2020-06-03)